Time;durP1;ratioP1;P1;durP2;ratioP2;P2;SDS_P1;SDS_P2;PMS_P1;PMS_P2;Temp;Humidity;BMP_temperature;BMP_pressure;BME280_temperature;BME280_humidity;BME280_pressure;Samples;Min_cycle;Max_cycle;Signal;HPM_P1;HPM_P2
2022/03/29 00:00:38;;;;;;;;;37.75;28.50;;;;;21.04;30.76;101026.09;5045050;28;61889;-77
2022/03/29 00:03:05;;;;;;;;;37.25;31.00;;;;;21.04;30.77;101024.31;5044762;28;61895;-77
2022/03/29 00:05:30;;;;;;;;;31.75;26.50;;;;;21.04;30.77;101021.66;5043978;28;61886;-77
2022/03/29 00:07:56;;;;;;;;;36.00;30.50;;;;;21.03;31.17;101019.84;5059853;28;61895;-77
2022/03/29 00:10:21;;;;;;;;;36.50;31.25;;;;;21.07;31.20;101017.19;5044621;28;61759;-77
2022/03/29 00:12:50;;;;;;;;;40.75;31.50;;;;;21.06;31.17;101005.66;5044232;28;62074;-77
2022/03/29 00:15:16;;;;;;;;;33.75;28.25;;;;;21.08;31.29;101002.97;5042439;28;64136;-77
2022/03/29 00:17:41;;;;;;;;;36.75;29.00;;;;;21.09;30.96;100992.28;5044392;28;61964;-77
2022/03/29 00:20:08;;;;;;;;;35.25;26.75;;;;;21.08;31.22;100993.19;5044557;28;61933;-77
2022/03/29 00:22:34;;;;;;;;;31.75;25.75;;;;;21.07;31.37;100980.72;5044461;28;61726;-77
2022/03/29 00:25:00;;;;;;;;;31.25;28.00;;;;;21.09;31.16;100976.28;5043949;28;61897;-77
2022/03/29 00:27:25;;;;;;;;;37.75;29.50;;;;;21.06;31.22;100983.38;5059130;28;61856;-77
2022/03/29 00:29:51;;;;;;;;;30.75;24.75;;;;;21.06;31.44;100980.69;5044449;28;61878;-77
2022/03/29 00:32:16;;;;;;;;;35.25;24.00;;;;;21.04;31.48;100984.28;5044459;28;62150;-77
2022/03/29 00:34:42;;;;;;;;;35.25;28.25;;;;;21.06;31.37;100980.69;5043659;28;62908;-77
2022/03/29 00:37:08;;;;;;;;;35.25;27.75;;;;;21.04;31.52;100978.06;5042018;28;62366;-77
2022/03/29 00:39:33;;;;;;;;;34.00;24.25;;;;;21.02;31.28;100971.81;5044365;28;62288;-77
2022/03/29 00:42:00;;;;;;;;;33.00;29.75;;;;;21.03;31.70;100965.56;5042132;28;61844;-76
2022/03/29 00:44:33;;;;;;;;;34.00;28.25;;;;;21.01;31.32;100967.34;5043428;28;61956;-77
2022/03/29 00:47:01;;;;;;;;;36.50;25.75;;;;;20.99;31.58;100967.34;5043954;28;61762;-77
2022/03/29 00:49:27;;;;;;;;;33.75;25.75;;;;;20.94;31.53;100957.53;5043666;28;61796;-77
2022/03/29 00:51:57;;;;;;;;;33.75;27.00;;;;;20.91;31.56;100952.16;5042452;28;62068;-77
2022/03/29 00:54:26;;;;;;;;;36.50;30.00;;;;;20.88;31.62;100946.84;5058651;28;63798;-77
2022/03/29 00:56:52;;;;;;;;;31.50;26.00;;;;;20.86;31.86;100948.59;5042033;28;61960;-77
2022/03/29 00:59:18;;;;;;;;;38.75;29.75;;;;;20.83;32.09;100942.34;5042597;28;62000;-77
2022/03/29 01:01:44;;;;;;;;;31.25;30.00;;;;;20.83;32.45;100938.81;5043844;28;61729;-77
2022/03/29 01:04:10;;;;;;;;;35.50;32.25;;;;;20.80;32.08;100930.78;5043329;28;62882;-77
2022/03/29 01:06:38;;;;;;;;;39.25;27.25;;;;;20.78;32.22;100928.13;5043372;28;61855;-77
2022/03/29 01:09:03;;;;;;;;;33.00;27.25;;;;;20.78;32.09;100925.44;5042438;28;61942;-77
2022/03/29 01:11:30;;;;;;;;;37.50;26.50;;;;;20.75;32.06;100924.53;5043654;28;61930;-77
2022/03/29 01:13:55;;;;;;;;;34.75;25.50;;;;;20.72;32.24;100919.19;5042831;28;62065;-77
2022/03/29 01:19:08;;;;;;;;;47.50;33.75;;;;;20.69;32.13;100914.72;5043421;28;61929;-76
2022/03/29 01:21:36;;;;;;;;;37.00;28.50;;;;;20.69;32.29;100914.72;5059393;28;62387;-77
2022/03/29 01:24:02;;;;;;;;;47.00;34.25;;;;;20.67;32.23;100920.94;5058559;28;64716;-77
2022/03/29 01:26:29;;;;;;;;;44.75;31.50;;;;;20.66;32.51;100914.72;5043396;28;61768;-77
2022/03/29 01:28:56;;;;;;;;;38.25;27.75;;;;;20.67;32.30;100912.94;5043244;28;62356;-77
2022/03/29 01:31:23;;;;;;;;;34.25;26.25;;;;;20.66;32.26;100912.03;5059420;28;62154;-77
2022/03/29 01:33:49;;;;;;;;;36.00;30.50;;;;;20.64;32.36;100908.47;5042833;28;63239;-77
2022/03/29 01:36:15;;;;;;;;;32.75;25.75;;;;;20.63;32.03;100907.59;5043537;28;61852;-77
2022/03/29 01:38:40;;;;;;;;;32.00;28.50;;;;;20.61;31.86;100903.13;5043114;28;61741;-77
2022/03/29 01:41:06;;;;;;;;;33.25;28.00;;;;;20.58;31.91;100897.78;5058784;28;62035;-77
2022/03/29 01:43:32;;;;;;;;;32.50;25.25;;;;;20.59;32.29;100897.78;5041348;28;64940;-77
2022/03/29 01:45:58;;;;;;;;;27.50;21.00;;;;;20.59;32.25;100891.56;5041981;28;62143;-77
2022/03/29 01:48:24;;;;;;;;;29.25;24.00;;;;;20.57;31.82;100883.56;5043172;28;61752;-77
2022/03/29 01:50:51;;;;;;;;;32.50;26.50;;;;;20.56;31.55;100880.84;5040476;28;61861;-77
2022/03/29 01:53:28;;;;;;;;;36.25;23.00;;;;;20.54;31.32;100880.81;5042444;28;61962;-77
2022/03/29 01:55:58;;;;;;;;;30.25;26.50;;;;;20.55;31.50;100865.72;5041552;28;61793;-77
2022/03/29 01:58:24;;;;;;;;;31.50;26.50;;;;;20.54;31.26;100864.81;5041635;28;61863;-77
2022/03/29 02:00:50;;;;;;;;;35.00;26.25;;;;;20.51;30.98;100859.47;5058601;28;62107;-77
2022/03/29 02:03:16;;;;;;;;;31.00;23.50;;;;;20.49;30.86;100855.91;5057983;28;63870;-77
2022/03/29 02:05:41;;;;;;;;;26.00;23.00;;;;;20.47;30.88;100855.00;5043081;28;61989;-77
2022/03/29 02:08:07;;;;;;;;;32.00;26.75;;;;;20.45;30.20;100853.22;5042702;28;61928;-77
2022/03/29 02:10:33;;;;;;;;;34.75;23.75;;;;;20.43;30.47;100854.09;5043249;28;61787;-77
2022/03/29 02:12:59;;;;;;;;;28.50;22.50;;;;;20.42;30.60;100843.44;5041832;28;62909;-77
2022/03/29 02:15:25;;;;;;;;;33.50;24.25;;;;;20.41;30.65;100838.97;5043001;28;61804;-77
2022/03/29 02:17:50;;;;;;;;;30.50;21.75;;;;;20.39;30.22;100841.66;5042534;28;62257;-77
2022/03/29 02:20:17;;;;;;;;;33.50;25.00;;;;;20.40;30.36;100834.53;5043030;28;61777;-77
2022/03/29 02:22:44;;;;;;;;;27.50;25.00;;;;;20.37;30.32;100831.84;5041854;28;65052;-77
2022/03/29 02:25:10;;;;;;;;;30.00;22.50;;;;;20.35;29.97;100826.53;5041332;28;61959;-77
2022/03/29 02:27:38;;;;;;;;;30.50;22.75;;;;;20.39;30.35;100819.41;5042432;28;62054;-77
2022/03/29 02:30:05;;;;;;;;;23.75;21.25;;;;;20.40;30.06;100822.09;5042863;28;62286;-77
2022/03/29 02:32:30;;;;;;;;;26.25;22.50;;;;;20.38;29.72;100814.97;5042106;28;63156;-77
2022/03/29 02:34:56;;;;;;;;;27.75;24.00;;;;;20.37;29.72;100810.53;5042450;28;61900;-77
2022/03/29 02:37:21;;;;;;;;;25.00;22.25;;;;;20.36;29.75;100801.63;5040795;28;61754;-77
2022/03/29 02:39:47;;;;;;;;;36.00;24.25;;;;;20.35;29.41;100794.53;5042725;28;62101;-77
2022/03/29 02:42:12;;;;;;;;;28.00;23.00;;;;;20.33;29.25;100803.38;5041396;28;62041;-77
2022/03/29 02:44:37;;;;;;;;;28.50;23.00;;;;;20.31;29.27;100792.75;5041251;28;61942;-77
2022/03/29 02:47:03;;;;;;;;;22.00;20.25;;;;;20.30;28.81;100785.59;5041151;28;62467;-77
2022/03/29 02:49:29;;;;;;;;;33.75;22.50;;;;;20.29;28.94;100790.94;5042292;28;61754;-77
2022/03/29 02:51:54;;;;;;;;;25.50;20.75;;;;;20.27;28.82;100788.28;5039802;28;63716;-77
2022/03/29 02:54:20;;;;;;;;;31.00;25.00;;;;;20.27;28.92;100782.06;5040960;28;61752;-77
2022/03/29 02:56:46;;;;;;;;;22.75;19.25;;;;;20.25;28.82;100789.16;5042436;28;61837;-77
2022/03/29 02:59:13;;;;;;;;;22.00;17.50;;;;;20.26;29.09;100793.59;5041559;28;62386;-77
2022/03/29 03:01:39;;;;;;;;;26.25;22.50;;;;;20.22;28.92;100793.59;5041547;28;61714;-77
2022/03/29 03:04:05;;;;;;;;;21.50;19.00;;;;;20.22;29.03;100787.34;5057666;28;61775;-77
2022/03/29 03:06:30;;;;;;;;;22.25;16.75;;;;;20.22;28.98;100792.66;5040565;28;61919;-77
2022/03/29 03:08:55;;;;;;;;;26.25;18.25;;;;;20.22;29.34;100790.94;5057754;28;62313;-77
2022/03/29 03:11:22;;;;;;;;;25.25;20.25;;;;;20.24;29.08;100790.91;5040073;28;63362;-78
2022/03/29 03:13:47;;;;;;;;;27.75;24.00;;;;;20.18;29.56;100778.47;5040268;28;61760;-77
2022/03/29 03:16:13;;;;;;;;;19.50;19.25;;;;;20.17;29.67;100770.44;5042029;28;61822;-77
2022/03/29 03:18:39;;;;;;;;;28.75;21.50;;;;;20.15;29.69;100765.09;5042147;28;61920;-77
2022/03/29 03:21:04;;;;;;;;;27.75;20.50;;;;;20.14;29.69;100762.47;5041057;28;62028;-77
2022/03/29 03:23:30;;;;;;;;;20.25;19.00;;;;;20.15;29.50;100764.22;5057394;28;61919;-77
2022/03/29 03:25:56;;;;;;;;;27.25;23.50;;;;;20.15;29.79;100761.56;5042062;28;62203;-77
2022/03/29 03:28:21;;;;;;;;;24.00;21.75;;;;;20.15;29.74;100757.09;5041321;28;62225;-77
2022/03/29 03:30:46;;;;;;;;;21.25;16.25;;;;;20.15;29.92;100753.56;5041394;28;62032;-77
2022/03/29 03:33:12;;;;;;;;;24.75;21.75;;;;;20.15;29.82;100746.44;5041762;28;62369;-77
2022/03/29 03:35:38;;;;;;;;;24.50;20.25;;;;;20.16;29.85;100750.91;5041849;28;61878;-77
2022/03/29 03:38:04;;;;;;;;;20.25;16.50;;;;;20.16;29.92;100748.25;5041871;28;61925;-77
2022/03/29 03:40:30;;;;;;;;;26.75;22.25;;;;;20.15;29.95;100746.44;5056571;28;63972;-78
2022/03/29 03:42:55;;;;;;;;;19.00;17.25;;;;;20.15;29.95;100745.56;5056991;28;61925;-77
2022/03/29 03:45:22;;;;;;;;;23.75;23.25;;;;;20.14;29.32;100744.69;5041710;28;62604;-77
2022/03/29 03:47:48;;;;;;;;;21.75;19.25;;;;;20.15;29.83;100742.91;5040502;28;62031;-77
2022/03/29 03:50:14;;;;;;;;;33.25;23.75;;;;;20.14;29.26;100741.13;5056179;28;63886;-77
2022/03/29 03:52:39;;;;;;;;;22.75;18.00;;;;;20.13;30.02;100734.00;5039985;28;62059;-77
2022/03/29 03:55:07;;;;;;;;;19.75;17.75;;;;;20.14;29.74;100730.47;5057189;28;61861;-77
2022/03/29 03:57:33;;;;;;;;;26.75;18.50;;;;;20.12;29.65;100733.13;5041197;28;61710;-77
2022/03/29 03:59:58;;;;;;;;;18.50;18.50;;;;;20.10;29.53;100734.00;5040948;28;62954;-77
2022/03/29 04:02:24;;;;;;;;;22.00;19.50;;;;;20.11;29.70;100719.78;5040110;28;61991;-77
2022/03/29 04:04:49;;;;;;;;;26.50;22.00;;;;;20.12;29.69;100721.59;5041480;28;61652;-77
2022/03/29 04:07:15;;;;;;;;;24.25;17.00;;;;;20.07;30.01;100718.88;5041708;28;61831;-77
2022/03/29 04:09:41;;;;;;;;;27.50;18.25;;;;;20.07;30.08;100718.88;5055857;28;63701;-76
2022/03/29 04:12:07;;;;;;;;;21.00;16.75;;;;;20.07;30.21;100715.31;5039767;28;61771;-77
2022/03/29 04:14:33;;;;;;;;;22.00;16.00;;;;;20.09;30.33;100714.44;5060293;28;61959;-77
2022/03/29 04:16:59;;;;;;;;;24.25;20.25;;;;;20.07;30.13;100710.00;5044935;28;61955;-78
2022/03/29 04:19:24;;;;;;;;;27.25;19.25;;;;;20.09;30.22;100718.88;5043598;28;61882;-77
2022/03/29 04:21:50;;;;;;;;;23.25;19.50;;;;;20.01;30.37;100719.75;5044644;28;62133;-77
2022/03/29 04:24:16;;;;;;;;;24.50;17.25;;;;;20.00;30.26;100719.72;5044741;28;61898;-78
2022/03/29 04:26:41;;;;;;;;;21.00;20.00;;;;;20.00;30.61;100715.28;5044408;28;62268;-77
2022/03/29 04:29:07;;;;;;;;;24.25;14.00;;;;;20.01;30.74;100705.53;5043706;28;61904;-77
2022/03/29 04:31:33;;;;;;;;;23.75;19.50;;;;;20.02;30.57;100710.84;5044578;28;62078;-77
2022/03/29 04:33:59;;;;;;;;;31.25;24.75;;;;;19.99;30.57;100702.88;5044371;28;62046;-77
2022/03/29 04:36:25;;;;;;;;;25.25;21.50;;;;;19.98;30.71;100708.19;5060181;28;61766;-77
2022/03/29 04:38:51;;;;;;;;;24.50;18.00;;;;;19.96;30.85;100710.81;5043457;28;61704;-77
2022/03/29 04:41:16;;;;;;;;;27.25;20.75;;;;;19.94;30.88;100712.59;5044455;28;61886;-77
2022/03/29 04:43:42;;;;;;;;;24.50;19.75;;;;;19.94;31.29;100701.06;5044113;28;61780;-77
2022/03/29 04:46:08;;;;;;;;;24.75;19.25;;;;;19.95;31.30;100702.84;5060204;28;62001;-77
2022/03/29 04:48:34;;;;;;;;;24.25;17.75;;;;;19.97;31.50;100695.75;5043310;28;61899;-77
2022/03/29 04:50:59;;;;;;;;;18.75;17.25;;;;;19.95;31.78;100703.72;5043747;28;61794;-77
2022/03/29 04:53:25;;;;;;;;;24.75;18.25;;;;;19.95;31.80;100706.41;5044357;28;61808;-77
2022/03/29 04:55:51;;;;;;;;;26.75;21.25;;;;;19.94;31.71;100701.06;5044055;28;62086;-77
2022/03/29 04:58:17;;;;;;;;;21.75;17.25;;;;;19.92;31.85;100701.03;5043300;28;62354;-77
2022/03/29 05:00:43;;;;;;;;;25.75;21.50;;;;;19.89;31.99;100706.38;5044137;28;61793;-77
2022/03/29 05:03:08;;;;;;;;;27.00;21.50;;;;;19.91;32.32;100717.03;5043934;28;62067;-78
2022/03/29 05:05:33;;;;;;;;;35.25;22.75;;;;;19.92;31.99;100729.47;5044422;28;62044;-77
2022/03/29 05:07:59;;;;;;;;;23.50;20.00;;;;;19.79;32.30;100718.75;5043126;28;61756;-77
2022/03/29 05:10:24;;;;;;;;;24.50;22.25;;;;;19.81;32.48;100714.31;5043867;28;61928;-77
2022/03/29 05:12:51;;;;;;;;;21.50;16.75;;;;;19.84;32.20;100705.47;5043527;28;61976;-80
2022/03/29 05:15:20;;;;;;;;;26.75;22.25;;;;;19.87;32.32;100702.78;5059566;28;61789;-80
2022/03/29 05:17:46;;;;;;;;;27.25;22.00;;;;;19.88;32.37;100704.59;5042626;28;61961;-79
2022/03/29 05:20:12;;;;;;;;;24.25;21.50;;;;;19.87;32.39;100705.47;5043723;28;61885;-78
2022/03/29 05:22:50;;;;;;;;;19.75;17.00;;;;;19.90;32.55;100712.56;5042404;28;61769;-79
2022/03/29 05:25:19;;;;;;;;;22.75;20.25;;;;;19.92;32.80;100713.47;5058892;28;61766;-79
2022/03/29 05:27:45;;;;;;;;;28.25;22.75;;;;;19.92;32.48;100706.38;5042782;28;61838;-78
2022/03/29 05:30:12;;;;;;;;;27.00;23.75;;;;;19.92;32.65;100702.81;5043368;28;61881;-78
2022/03/29 05:32:37;;;;;;;;;23.75;22.75;;;;;19.92;32.57;100706.38;5043273;28;62244;-78
2022/03/29 05:35:05;;;;;;;;;33.75;25.00;;;;;19.94;32.57;100701.06;5042132;28;61847;-79
2022/03/29 05:37:30;;;;;;;;;29.00;20.75;;;;;19.94;32.87;100701.94;5043105;28;61902;-78
2022/03/29 05:39:56;;;;;;;;;25.50;23.00;;;;;19.97;33.17;100706.41;5043243;28;61763;-78
2022/03/29 05:42:21;;;;;;;;;23.75;20.75;;;;;19.98;32.67;100705.50;5042404;28;61833;-76
2022/03/29 05:44:47;;;;;;;;;35.75;25.00;;;;;19.94;32.23;100696.59;5043542;28;62108;-76
2022/03/29 05:49:57;;;;;;;;;27.00;22.75;;;;;19.95;32.23;100694.84;5022693;28;61849;-76
2022/03/29 05:52:23;;;;;;;;;25.25;22.50;;;;;19.94;32.43;100685.94;5034354;28;61781;-76
2022/03/29 05:54:49;;;;;;;;;28.00;21.50;;;;;19.96;32.47;100677.97;5043253;28;61689;-76
2022/03/29 05:57:15;;;;;;;;;35.75;23.75;;;;;19.98;32.58;100678.88;5041784;28;62424;-76
2022/03/29 05:59:42;;;;;;;;;24.25;23.25;;;;;19.98;32.65;100669.09;5058607;28;61814;-75
2022/03/29 06:02:08;;;;;;;;;31.25;26.50;;;;;20.04;32.19;100668.25;5058003;28;61873;-75
2022/03/29 06:04:35;;;;;;;;;28.75;23.00;;;;;20.04;32.01;100670.91;5043010;28;61857;-75
2022/03/29 06:07:02;;;;;;;;;30.50;21.00;;;;;20.06;32.38;100669.13;5042059;28;61792;-76
2022/03/29 06:09:28;;;;;;;;;32.25;23.25;;;;;20.07;32.01;100675.34;5042346;28;61775;-75
2022/03/29 06:11:53;;;;;;;;;23.00;17.50;;;;;20.08;31.69;100680.69;5041993;28;61882;-78
2022/03/29 06:14:20;;;;;;;;;26.50;21.25;;;;;20.05;31.94;100687.78;5041284;28;62195;-78
2022/03/29 06:16:45;;;;;;;;;27.75;22.25;;;;;19.99;32.13;100688.66;5039617;28;63288;-77
2022/03/29 06:19:11;;;;;;;;;31.25;23.00;;;;;19.99;31.68;100700.19;5040770;28;62401;-77
2022/03/29 06:21:37;;;;;;;;;28.75;24.75;;;;;20.04;32.41;100697.56;5042822;28;61937;-77
2022/03/29 06:24:04;;;;;;;;;29.75;24.00;;;;;20.09;32.38;100701.13;5037958;28;61809;-77
2022/03/29 06:26:30;;;;;;;;;30.75;23.00;;;;;20.15;32.70;100693.13;5054281;28;63771;-77
2022/03/29 06:28:56;;;;;;;;;43.75;28.25;;;;;20.20;32.64;100690.50;5040479;28;61916;-76
2022/03/29 06:31:22;;;;;;;;;17.50;15.00;;;;;20.22;32.37;100688.72;5042072;28;61738;-77
2022/03/29 06:33:48;;;;;;;;;30.75;25.25;;;;;20.20;32.56;100688.75;5042423;28;62033;-77
2022/03/29 06:36:13;;;;;;;;;29.75;28.25;;;;;20.16;32.44;100700.28;5049601;28;63645;-77
2022/03/29 06:38:39;;;;;;;;;22.75;17.50;;;;;20.20;32.81;100720.72;5031438;28;61883;-76
2022/03/29 06:41:05;;;;;;;;;31.00;26.50;;;;;20.23;33.04;100722.50;5028498;28;61969;-76
2022/03/29 06:43:30;;;;;;;;;30.50;24.00;;;;;20.27;33.44;100718.97;5027772;28;62090;-78
2022/03/29 06:45:56;;;;;;;;;25.75;23.50;;;;;20.31;33.26;100718.09;5037760;28;62699;-77
2022/03/29 06:48:23;;;;;;;;;25.25;20.00;;;;;20.34;32.97;100718.09;5041752;28;61902;-77
2022/03/29 06:50:48;;;;;;;;;20.50;16.25;;;;;20.34;33.16;100712.75;5042174;28;62229;-77
2022/03/29 06:53:14;;;;;;;;;28.75;22.50;;;;;20.37;33.64;100722.53;5043550;28;61894;-77
2022/03/29 06:55:39;;;;;;;;;23.75;19.25;;;;;20.39;33.43;100724.34;5041994;28;63648;-77
2022/03/29 06:58:05;;;;;;;;;28.50;22.50;;;;;20.43;32.94;100719.91;5041857;28;61949;-76
2022/03/29 07:00:30;;;;;;;;;30.25;22.00;;;;;20.46;33.09;100716.34;5042692;28;62091;-77
2022/03/29 07:02:56;;;;;;;;;34.00;27.50;;;;;20.51;33.14;100711.94;5039868;28;61893;-78
2022/03/29 07:05:21;;;;;;;;;39.00;25.75;;;;;20.57;33.66;100711.94;5042911;28;64891;-77
2022/03/29 07:07:47;;;;;;;;;29.00;23.50;;;;;20.62;33.62;100704.88;5041707;28;61843;-77
2022/03/29 07:13:01;;;;;;;;;29.50;23.75;;;;;20.77;33.70;100699.53;5041359;28;61974;-77
2022/03/29 07:15:27;;;;;;;;;31.00;24.50;;;;;20.79;33.90;100689.78;5042311;28;63785;-77
2022/03/29 07:17:54;;;;;;;;;34.50;24.00;;;;;20.83;33.61;100694.22;5042444;28;62029;-77
2022/03/29 07:20:20;;;;;;;;;28.50;22.75;;;;;20.87;32.99;100696.91;5042221;28;61699;-77
2022/03/29 07:22:47;;;;;;;;;33.50;25.00;;;;;20.92;33.38;100695.13;5040250;28;61969;-77
2022/03/29 07:25:13;;;;;;;;;29.75;24.50;;;;;20.94;33.48;100686.22;5024064;28;62902;-77
2022/03/29 07:27:39;;;;;;;;;34.00;21.75;;;;;20.97;32.92;100678.25;5022250;28;61742;-77
2022/03/29 07:30:05;;;;;;;;;29.00;21.25;;;;;21.00;33.25;100680.00;5032481;28;61840;-77
2022/03/29 07:32:32;;;;;;;;;29.75;23.75;;;;;21.03;32.36;100675.53;5043712;28;62211;-77
2022/03/29 07:34:58;;;;;;;;;23.25;22.25;;;;;21.04;31.76;100674.66;5043537;28;62916;-77
2022/03/29 07:37:24;;;;;;;;;26.00;21.50;;;;;21.06;32.05;100671.09;5042798;28;61996;-77
2022/03/29 07:39:53;;;;;;;;;28.75;20.50;;;;;21.06;31.97;100674.69;5040510;28;61731;-77
2022/03/29 07:42:22;;;;;;;;;29.25;21.25;;;;;21.05;31.62;100667.53;5040988;28;62088;-76
2022/03/29 07:44:50;;;;;;;;;28.75;23.50;;;;;21.07;32.27;100656.88;5040073;28;61842;-76
2022/03/29 07:47:17;;;;;;;;;18.50;15.50;;;;;21.09;32.05;100660.44;5040847;28;61737;-76
2022/03/29 07:49:43;;;;;;;;;34.50;27.00;;;;;21.07;31.37;100657.75;5060001;28;61727;-77
2022/03/29 07:52:09;;;;;;;;;25.25;21.75;;;;;21.12;31.67;100655.06;5044832;28;62696;-76
2022/03/29 07:54:34;;;;;;;;;32.00;27.25;;;;;21.13;31.36;100668.44;5044490;28;63152;-77
2022/03/29 07:56:59;;;;;;;;;26.75;23.25;;;;;21.16;31.91;100679.09;5043680;28;61955;-77
2022/03/29 07:59:25;;;;;;;;;28.75;24.75;;;;;21.17;31.65;100682.69;5060388;28;62069;-78
2022/03/29 08:01:50;;;;;;;;;24.25;21.75;;;;;21.17;31.62;100672.88;5045606;28;62145;-77
2022/03/29 08:04:16;;;;;;;;;30.00;28.25;;;;;21.25;32.13;100672.84;5044920;28;61911;-77
2022/03/29 08:06:41;;;;;;;;;30.75;25.00;;;;;21.28;31.79;100671.97;5043850;28;61994;-77
2022/03/29 08:09:07;;;;;;;;;22.50;20.75;;;;;21.32;31.37;100668.41;5045270;28;61813;-77
2022/03/29 08:11:34;;;;;;;;;32.75;20.00;;;;;21.38;31.76;100660.38;5045123;28;61816;-77
2022/03/29 08:13:59;;;;;;;;;36.00;28.50;;;;;21.50;31.50;100660.38;5043546;28;61748;-77
2022/03/29 08:16:27;;;;;;;;;28.00;22.00;;;;;21.60;31.33;100659.47;5044275;28;61802;-77
2022/03/29 08:18:53;;;;;;;;;30.75;22.75;;;;;21.73;31.11;100660.31;5041892;28;61929;-77
2022/03/29 08:24:03;;;;;;;;;36.00;27.00;;;;;21.94;31.12;100658.47;5041550;28;61891;-77
2022/03/29 08:26:28;;;;;;;;;32.50;26.75;;;;;22.05;30.39;100654.84;5043930;28;61780;-77
2022/03/29 08:28:54;;;;;;;;;32.50;26.50;;;;;22.16;31.07;100641.41;5059183;28;61877;-77
2022/03/29 08:31:19;;;;;;;;;29.25;25.75;;;;;22.31;30.42;100639.59;5035117;28;62261;-77
2022/03/29 08:33:44;;;;;;;;;29.50;24.00;;;;;22.43;30.43;100639.50;5041946;28;63670;-77
2022/03/29 08:36:10;;;;;;;;;29.75;26.00;;;;;22.58;30.51;100638.50;5043249;28;62412;-78
2022/03/29 08:38:35;;;;;;;;;25.50;22.75;;;;;22.72;30.25;100631.25;5043498;28;61808;-77
2022/03/29 08:41:01;;;;;;;;;36.25;26.00;;;;;22.82;29.87;100619.59;5043666;28;62054;-77
2022/03/29 08:43:29;;;;;;;;;38.50;28.00;;;;;22.96;30.07;100621.25;5042648;28;63084;-77
2022/03/29 08:45:55;;;;;;;;;33.25;24.75;;;;;23.09;29.86;100622.06;5059121;28;61971;-77
2022/03/29 08:48:25;;;;;;;;;34.75;25.75;;;;;23.16;29.57;100610.38;5059357;28;62011;-78
2022/03/29 08:50:53;;;;;;;;;31.50;25.50;;;;;23.14;29.47;100610.41;5042639;28;61997;-77
2022/03/29 08:53:21;;;;;;;;;27.75;23.75;;;;;23.22;29.30;100615.66;5042886;28;61900;-77
2022/03/29 08:55:48;;;;;;;;;34.00;27.00;;;;;23.32;29.35;100612.00;5058489;28;62028;-78
2022/03/29 08:58:16;;;;;;;;;30.50;22.75;;;;;23.37;29.17;100604.81;5041262;28;61750;-77
2022/03/29 09:00:44;;;;;;;;;29.25;26.50;;;;;23.44;29.67;100598.47;5043124;28;62112;-77
2022/03/29 09:03:10;;;;;;;;;27.00;23.25;;;;;23.54;29.58;100593.88;5042081;28;61993;-77
2022/03/29 09:05:36;;;;;;;;;30.75;29.00;;;;;23.61;29.20;100598.28;5038786;28;61842;-77
2022/03/29 09:08:08;;;;;;;;;30.75;25.75;;;;;23.64;28.77;100594.66;5058319;28;61738;-77
2022/03/29 09:10:48;;;;;;;;;29.75;27.00;;;;;23.72;29.42;100590.09;5043386;28;61892;-78
2022/03/29 09:13:23;;;;;;;;;35.00;29.50;;;;;23.81;29.21;100594.47;5057586;28;64625;-77
2022/03/29 09:15:57;;;;;;;;;35.25;24.75;;;;;23.90;28.60;100588.97;5042852;28;61868;-77
2022/03/29 09:18:23;;;;;;;;;29.25;25.50;;;;;23.94;28.41;100579.13;5043186;28;61666;-77
2022/03/29 09:21:09;;;;;;;;;40.25;29.00;;;;;24.05;28.73;100582.53;5041166;28;62395;-77
2022/03/29 09:23:35;;;;;;;;;34.25;29.50;;;;;24.14;28.42;100582.38;5022320;28;61977;-77
2022/03/29 09:26:02;;;;;;;;;34.75;26.50;;;;;24.21;28.22;100586.75;5023216;28;62102;-77
2022/03/29 09:28:34;;;;;;;;;33.00;27.25;;;;;24.31;28.13;100583.94;5040209;28;61869;-77
2022/03/29 09:31:00;;;;;;;;;35.25;25.75;;;;;24.30;28.31;100583.06;5040239;28;61912;-77
2022/03/29 09:33:33;;;;;;;;;28.00;27.00;;;;;24.36;28.45;100582.97;5056259;28;64989;-77
2022/03/29 09:36:07;;;;;;;;;31.00;27.00;;;;;24.37;28.37;100576.66;5039886;28;61889;-76
2022/03/29 09:38:39;;;;;;;;;28.75;21.00;;;;;24.35;28.56;100574.94;5041106;28;62083;-77
2022/03/29 09:41:20;;;;;;;;;29.00;26.50;;;;;24.32;28.24;100572.31;5040287;28;61751;-77
2022/03/29 09:44:03;;;;;;;;;35.25;23.00;;;;;24.29;28.78;100576.81;5038444;28;61946;-77
2022/03/29 09:46:30;;;;;;;;;30.25;26.25;;;;;24.36;28.83;100572.22;5056436;28;62077;-77
2022/03/29 09:49:01;;;;;;;;;36.25;31.75;;;;;24.38;28.10;100566.81;5056771;28;61838;-77
2022/03/29 09:51:27;;;;;;;;;33.00;26.25;;;;;24.35;28.56;100573.13;5039750;28;62255;-77
2022/03/29 09:53:55;;;;;;;;;33.50;30.00;;;;;24.43;28.71;100565.84;5040704;28;63142;-77
2022/03/29 09:56:28;;;;;;;;;29.25;27.75;;;;;24.55;28.19;100564.81;5040950;28;61723;-77
2022/03/29 09:59:14;;;;;;;;;37.00;28.25;;;;;24.49;28.06;100567.59;5058011;28;61980;-77
2022/03/29 10:01:54;;;;;;;;;41.00;30.00;;;;;24.44;28.30;100561.34;5042520;28;61867;-77
2022/03/29 10:04:21;;;;;;;;;34.75;27.75;;;;;24.38;28.59;100550.72;5037966;28;64953;-79
2022/03/29 10:06:52;;;;;;;;;24.25;19.00;;;;;24.42;28.41;100539.03;5040743;28;61927;-77
2022/03/29 10:09:42;;;;;;;;;40.50;31.00;;;;;24.55;27.80;100539.75;5041620;28;61997;-77
2022/03/29 10:12:09;;;;;;;;;33.25;31.25;;;;;24.61;28.45;100535.16;5042781;28;62185;-77
2022/03/29 10:14:41;;;;;;;;;30.50;25.75;;;;;24.72;28.80;100534.06;5041670;28;62092;-77
2022/03/29 10:17:07;;;;;;;;;35.00;29.25;;;;;24.73;27.95;100531.38;5054543;28;61804;-77
2022/03/29 10:19:34;;;;;;;;;35.50;26.50;;;;;24.82;27.60;100530.31;5037354;28;61861;-77
2022/03/29 10:22:01;;;;;;;;;33.50;30.00;;;;;24.88;27.89;100528.41;5021228;28;62120;-76
2022/03/29 10:24:29;;;;;;;;;34.50;31.50;;;;;24.96;27.65;100520.22;5036954;28;63725;-76
2022/03/29 10:26:59;;;;;;;;;31.50;27.50;;;;;25.10;27.29;100520.81;5037813;28;61861;-76
2022/03/29 10:29:25;;;;;;;;;38.25;25.75;;;;;25.34;27.91;100521.25;5037154;28;61826;-76
2022/03/29 10:31:55;;;;;;;;;37.00;29.75;;;;;25.58;27.82;100518.97;5022493;28;61940;-76
2022/03/29 10:34:30;;;;;;;;;28.25;25.25;;;;;25.69;26.73;100522.31;5036623;28;64714;-76
2022/03/29 10:37:10;;;;;;;;;36.50;28.50;;;;;25.77;26.52;100519.44;5033769;28;61821;-76
2022/03/29 10:39:59;;;;;;;;;36.75;27.50;;;;;25.92;26.53;100513.75;5020584;28;61973;-76
2022/03/29 10:42:27;;;;;;;;;39.25;32.25;;;;;26.14;26.92;100513.22;5037516;28;62027;-76
2022/03/29 10:45:06;;;;;;;;;46.75;32.50;;;;;26.29;26.51;100511.06;5026161;28;61909;-76
2022/03/29 10:47:32;;;;;;;;;35.75;30.75;;;;;26.42;26.00;100505.38;5040100;28;61900;-75
2022/03/29 10:49:58;;;;;;;;;37.00;28.75;;;;;26.49;25.57;100501.59;5056298;28;61873;-75
2022/03/29 10:52:24;;;;;;;;;30.00;28.25;;;;;26.58;24.92;100498.69;5041392;28;61870;-77
2022/03/29 10:54:50;;;;;;;;;44.25;31.00;;;;;26.65;24.60;100492.25;5041575;28;61734;-77
2022/03/29 10:57:25;;;;;;;;;37.25;27.00;;;;;26.77;25.00;100490.13;5040955;28;61870;-76
2022/03/29 10:59:58;;;;;;;;;33.25;28.00;;;;;26.92;25.08;100492.38;5041017;28;62148;-76
2022/03/29 11:02:25;;;;;;;;;34.75;30.00;;;;;27.09;24.46;100490.09;5041983;28;61913;-77
2022/03/29 11:05:08;;;;;;;;;33.00;30.75;;;;;27.16;24.54;100489.94;5040848;28;62976;-77
2022/03/29 11:07:59;;;;;;;;;31.25;24.00;;;;;27.24;24.61;100480.72;5041662;28;62021;-76
2022/03/29 11:10:39;;;;;;;;;33.50;26.75;;;;;27.30;24.98;100479.66;5041466;28;61827;-77
2022/03/29 11:13:33;;;;;;;;;37.50;26.75;;;;;27.22;23.71;100470.94;5041588;28;61917;-76
2022/03/29 11:16:19;;;;;;;;;34.75;27.50;;;;;27.12;24.37;100471.16;5038796;28;64593;-76
2022/03/29 11:18:45;;;;;;;;;35.75;27.75;;;;;27.21;24.77;100472.72;5040335;28;61827;-76
2022/03/29 11:21:30;;;;;;;;;30.75;25.25;;;;;27.37;23.64;100462.38;5048348;28;61857;-76